createdAt,value
2022-11-27T00:01:17.117Z,100207.03
2022-11-27T00:03:44.251Z,100211.41
2022-11-27T00:06:20.622Z,100205.69
2022-11-27T00:08:48.528Z,100214.53
2022-11-27T00:11:18.402Z,100215.06
2022-11-27T00:13:45.692Z,100221.19
2022-11-27T00:16:13.955Z,100228.03
2022-11-27T00:18:41.213Z,100224.69
2022-11-27T00:21:10.985Z,100211.00
2022-11-27T00:23:38.751Z,100205.84
2022-11-27T00:26:06.488Z,100213.88
2022-11-27T00:28:33.954Z,100222.22
2022-11-27T00:31:02.150Z,100221.41
2022-11-27T00:33:28.740Z,100217.44
2022-11-27T00:35:55.392Z,100219.03
2022-11-27T00:38:21.960Z,100211.66
2022-11-27T00:40:48.966Z,100218.97
2022-11-27T00:43:15.692Z,100217.28
2022-11-27T00:45:42.207Z,100208.94
2022-11-27T00:48:08.676Z,100204.84
2022-11-27T00:50:35.181Z,100204.03
2022-11-27T00:53:06.493Z,100205.44
2022-11-27T00:55:36.608Z,100204.97
2022-11-27T00:58:03.119Z,100205.78
2022-11-27T01:00:29.728Z,100204.00
2022-11-27T01:02:56.499Z,100201.47
2022-11-27T01:05:26.418Z,100209.75
2022-11-27T01:07:52.958Z,100213.94
2022-11-27T01:10:21.417Z,100209.97
2022-11-27T01:12:50.084Z,100212.66
2022-11-27T01:15:16.661Z,100216.53
2022-11-27T01:17:43.187Z,100218.19
2022-11-27T01:20:10.110Z,100210.66
2022-11-27T01:22:36.632Z,100209.84
2022-11-27T01:25:03.271Z,100202.41
2022-11-27T01:27:29.752Z,100212.94
2022-11-27T01:29:56.355Z,100214.22
2022-11-27T01:32:23.076Z,100220.88
2022-11-27T01:34:50.120Z,100222.31
2022-11-27T01:37:16.701Z,100221.81
2022-11-27T01:39:43.316Z,100211.00
2022-11-27T01:42:11.672Z,100211.91
2022-11-27T01:44:38.493Z,100207.59
2022-11-27T01:47:15.380Z,100208.31
2022-11-27T01:49:50.528Z,100209.44
2022-11-27T01:52:28.069Z,100217.50
2022-11-27T01:54:59.142Z,100217.34
2022-11-27T01:57:31.091Z,100208.16
2022-11-27T02:00:00.589Z,100198.69
2022-11-27T02:02:27.271Z,100207.03
2022-11-27T02:04:55.141Z,100203.75
2022-11-27T02:07:22.085Z,100210.97
2022-11-27T02:09:48.884Z,100202.38
2022-11-27T02:12:25.688Z,100205.19
2022-11-27T02:15:14.111Z,100198.75
2022-11-27T02:17:46.411Z,100210.56
2022-11-27T02:20:28.057Z,100207.31
2022-11-27T02:23:23.091Z,100206.94
2022-11-27T02:25:55.754Z,100205.63
2022-11-27T02:28:58.670Z,100201.78
2022-11-27T02:31:25.681Z,100197.63
2022-11-27T02:33:56.100Z,100204.03
2022-11-27T02:36:29.656Z,100195.72
2022-11-27T02:39:09.070Z,100196.00
2022-11-27T02:41:47.215Z,100201.19
2022-11-27T02:44:15.998Z,100205.72
2022-11-27T02:46:42.948Z,100208.25
2022-11-27T02:49:12.995Z,100216.41
2022-11-27T02:51:49.533Z,100207.47
2022-11-27T02:54:21.848Z,100202.31
2022-11-27T02:56:49.923Z,100198.47
2022-11-27T02:59:18.241Z,100204.84
2022-11-27T03:01:52.068Z,100193.56
2022-11-27T03:04:24.751Z,100196.97
2022-11-27T03:06:56.457Z,100205.41
2022-11-27T03:09:51.174Z,100194.03
2022-11-27T03:12:19.062Z,100194.88
2022-11-27T03:14:47.044Z,100185.34
2022-11-27T03:17:44.132Z,100180.78
2022-11-27T03:20:10.645Z,100184.75
2022-11-27T03:22:37.259Z,100173.72
2022-11-27T03:25:04.080Z,100164.53
2022-11-27T03:27:38.744Z,100148.88
2022-11-27T03:30:06.695Z,100144.66
2022-11-27T03:32:33.406Z,100150.72
2022-11-27T03:35:00.532Z,100150.97
2022-11-27T03:37:28.251Z,100150.28
2022-11-27T03:39:55.101Z,100139.78
2022-11-27T03:42:45.918Z,100134.22
2022-11-27T03:45:43.728Z,100143.88
2022-11-27T03:48:35.458Z,100136.25
2022-11-27T03:51:04.684Z,100142.81
2022-11-27T03:54:06.733Z,100133.38
2022-11-27T03:56:33.209Z,100129.06
2022-11-27T03:59:09.169Z,100122.34
2022-11-27T04:01:36.485Z,100117.06
2022-11-27T04:04:03.388Z,100110.03
2022-11-27T04:06:30.615Z,100107.25
2022-11-27T04:08:57.299Z,100101.06
2022-11-27T04:11:23.772Z,100091.16
2022-11-27T04:13:52.237Z,100092.19
2022-11-27T04:16:19.366Z,100096.59
2022-11-27T04:18:45.889Z,100098.13
2022-11-27T04:21:12.850Z,100095.41
2022-11-27T04:23:39.655Z,100103.38
2022-11-27T04:26:06.548Z,100105.13
2022-11-27T04:28:34.451Z,100106.25
2022-11-27T04:31:01.636Z,100111.91
2022-11-27T04:33:28.584Z,100117.81
2022-11-27T04:35:55.212Z,100122.91
2022-11-27T04:38:22.127Z,100139.03
2022-11-27T04:40:48.669Z,100160.69
2022-11-27T04:43:15.234Z,100177.72
2022-11-27T04:45:41.790Z,100206.06
2022-11-27T04:48:08.380Z,100225.78
2022-11-27T04:50:34.916Z,100234.03
2022-11-27T04:53:01.847Z,100242.53
2022-11-27T04:55:29.275Z,100256.16
2022-11-27T04:57:55.790Z,100275.31
2022-11-27T05:00:22.319Z,100299.81
2022-11-27T05:02:48.918Z,100328.72
2022-11-27T05:05:17.145Z,100343.91
2022-11-27T05:07:43.763Z,100347.34
2022-11-27T05:10:11.305Z,100355.78
2022-11-27T05:12:37.849Z,100366.16
2022-11-27T05:15:04.985Z,100363.63
2022-11-27T05:17:32.014Z,100385.53
2022-11-27T05:19:58.502Z,100385.19
2022-11-27T05:22:24.960Z,100391.47
2022-11-27T05:24:51.482Z,100394.53
2022-11-27T05:27:17.990Z,100399.28
2022-11-27T05:29:44.602Z,100424.34
2022-11-27T05:32:11.574Z,100437.31
2022-11-27T05:34:38.415Z,100429.75
2022-11-27T05:37:05.481Z,100451.97
2022-11-27T05:39:32.065Z,100449.28
2022-11-27T05:41:58.668Z,100461.06
2022-11-27T05:44:26.549Z,100453.50
2022-11-27T05:46:53.067Z,100455.34
2022-11-27T05:49:19.648Z,100458.13
2022-11-27T05:51:50.944Z,100467.44
2022-11-27T05:54:17.934Z,100474.03
2022-11-27T05:56:44.444Z,100477.53
2022-11-27T05:59:11.049Z,100477.44
2022-11-27T06:01:37.693Z,100477.44
2022-11-27T06:04:04.383Z,100474.03
2022-11-27T06:06:31.414Z,100474.22
2022-11-27T06:08:57.880Z,100471.66
2022-11-27T06:11:24.572Z,100473.94
2022-11-27T06:13:51.213Z,100476.47
2022-11-27T06:16:21.685Z,100476.31
2022-11-27T06:18:53.233Z,100466.34
2022-11-27T06:21:21.441Z,100453.16
2022-11-27T06:23:48.439Z,100441.81
2022-11-27T06:26:16.662Z,100428.78
2022-11-27T06:28:43.641Z,100428.63
2022-11-27T06:31:17.728Z,100435.00
2022-11-27T06:33:45.106Z,100431.88
2022-11-27T06:36:11.841Z,100437.78
2022-11-27T06:38:39.038Z,100445.16
2022-11-27T06:41:08.521Z,100434.19
2022-11-27T06:43:35.957Z,100436.88
2022-11-27T06:46:04.230Z,100435.84
2022-11-27T06:48:31.986Z,100443.97
2022-11-27T06:51:03.310Z,100452.81
2022-11-27T06:53:30.838Z,100451.84
2022-11-27T06:55:57.845Z,100460.00
2022-11-27T06:58:30.658Z,100451.41
2022-11-27T07:01:01.934Z,100456.69
2022-11-27T07:03:28.528Z,100450.41
2022-11-27T07:05:55.188Z,100447.25
2022-11-27T07:08:22.488Z,100452.34
2022-11-27T07:10:49.029Z,100463.31
2022-11-27T07:13:15.537Z,100461.81
2022-11-27T07:15:42.497Z,100476.38
2022-11-27T07:18:09.996Z,100473.03
2022-11-27T07:20:36.491Z,100462.31
2022-11-27T07:23:03.008Z,100462.56
2022-11-27T07:25:29.604Z,100477.00
2022-11-27T07:27:56.209Z,100473.72
2022-11-27T07:30:22.745Z,100474.59
2022-11-27T07:32:49.292Z,100475.81
2022-11-27T07:35:15.836Z,100482.47
2022-11-27T07:37:42.438Z,100473.97
2022-11-27T07:40:09.816Z,100475.00
2022-11-27T07:42:38.731Z,100467.03
2022-11-27T07:45:08.411Z,100468.34
2022-11-27T07:47:35.009Z,100472.13
2022-11-27T07:50:01.725Z,100478.34
2022-11-27T07:52:28.431Z,100472.94
2022-11-27T07:54:54.975Z,100475.56
2022-11-27T07:57:21.546Z,100471.78
2022-11-27T07:59:48.113Z,100479.78
2022-11-27T08:02:15.239Z,100482.81
2022-11-27T08:04:42.305Z,100474.38
2022-11-27T08:07:09.032Z,100471.56
2022-11-27T08:09:35.908Z,100471.19
2022-11-27T08:12:02.356Z,100476.44
2022-11-27T08:14:29.025Z,100468.16
2022-11-27T08:16:55.774Z,100462.72
2022-11-27T08:19:22.388Z,100460.88
2022-11-27T08:21:48.937Z,100463.97
2022-11-27T08:24:15.639Z,100457.41
2022-11-27T08:26:42.916Z,100455.59
2022-11-27T08:29:12.520Z,100448.38
2022-11-27T08:31:39.352Z,100448.53
2022-11-27T08:34:06.146Z,100448.94
2022-11-27T08:36:32.701Z,100454.25
2022-11-27T08:38:59.327Z,100449.78
2022-11-27T08:41:25.870Z,100446.19
2022-11-27T08:43:52.478Z,100445.44
2022-11-27T08:46:19.074Z,100446.59
2022-11-27T08:48:45.659Z,100452.75
2022-11-27T08:51:15.585Z,100457.13
2022-11-27T08:53:45.154Z,100460.63
2022-11-27T08:56:16.869Z,100466.38
2022-11-27T08:58:44.653Z,100462.25
2022-11-27T09:01:16.176Z,100464.94
2022-11-27T09:03:43.478Z,100464.13
2022-11-27T09:06:12.779Z,100452.16
2022-11-27T09:08:40.356Z,100444.66
2022-11-27T09:11:07.664Z,100434.16
2022-11-27T09:13:36.937Z,100435.75
2022-11-27T09:16:09.345Z,100430.03
2022-11-27T09:18:35.897Z,100439.47
2022-11-27T09:21:05.081Z,100439.69
2022-11-27T09:23:32.342Z,100433.09
2022-11-27T09:26:00.161Z,100429.22
2022-11-27T09:28:31.404Z,100428.16
2022-11-27T09:31:00.449Z,100426.47
2022-11-27T09:33:28.434Z,100431.88
2022-11-27T09:35:55.249Z,100418.22
2022-11-27T09:38:23.673Z,100422.34
2022-11-27T09:40:53.548Z,100433.88
2022-11-27T09:43:29.584Z,100428.53
2022-11-27T09:46:01.531Z,100414.03
2022-11-27T09:48:39.289Z,100410.88
2022-11-27T09:51:19.964Z,100412.00
2022-11-27T09:53:58.048Z,100419.44
2022-11-27T09:56:25.264Z,100418.41
2022-11-27T09:58:59.569Z,100412.69
2022-11-27T10:01:36.610Z,100422.28
2022-11-27T10:04:12.991Z,100408.38
2022-11-27T10:06:45.410Z,100410.47
2022-11-27T10:09:36.744Z,100413.38
2022-11-27T10:12:12.164Z,100414.13
2022-11-27T10:14:38.785Z,100410.25
2022-11-27T10:17:28.791Z,100407.63
2022-11-27T10:20:23.823Z,100405.19
2022-11-27T10:23:03.252Z,100401.63
2022-11-27T10:25:39.885Z,100392.28
2022-11-27T10:28:22.326Z,100389.78
2022-11-27T10:30:58.087Z,100391.75
2022-11-27T10:33:33.361Z,100392.91
2022-11-27T10:36:01.346Z,100384.06
2022-11-27T10:38:40.266Z,100392.81
2022-11-27T10:41:48.306Z,100387.63
2022-11-27T10:44:25.248Z,100377.19
2022-11-27T10:46:54.453Z,100372.06
2022-11-27T10:49:21.745Z,100365.78
2022-11-27T10:51:48.465Z,100363.88
2022-11-27T10:54:26.552Z,100358.97
2022-11-27T10:57:12.053Z,100353.03
2022-11-27T11:00:07.671Z,100340.66
2022-11-27T11:02:38.614Z,100341.63
2022-11-27T11:05:45.069Z,100344.31
2022-11-27T11:08:18.691Z,100341.53
2022-11-27T11:11:02.307Z,100328.28
2022-11-27T11:13:33.697Z,100321.59
2022-11-27T11:16:05.038Z,100317.59
2022-11-27T11:18:42.757Z,100318.81
2022-11-27T11:21:33.653Z,100313.69
2022-11-27T11:24:06.958Z,100313.63
2022-11-27T11:26:52.759Z,100305.47
2022-11-27T11:29:34.485Z,100297.31
2022-11-27T11:32:11.252Z,100295.44
2022-11-27T11:34:43.812Z,100301.13
2022-11-27T11:37:23.787Z,100288.16
2022-11-27T11:39:55.602Z,100277.91
2022-11-27T11:42:25.645Z,100269.78
2022-11-27T11:44:54.992Z,100264.84
2022-11-27T11:47:26.693Z,100259.50
2022-11-27T11:49:55.108Z,100251.97
2022-11-27T11:52:24.539Z,100258.78
2022-11-27T11:55:22.062Z,100262.34
2022-11-27T11:58:11.941Z,100250.56
2022-11-27T12:01:11.821Z,100238.69
2022-11-27T12:04:02.954Z,100239.00
2022-11-27T12:06:48.304Z,100242.97
2022-11-27T12:09:17.674Z,100241.47
2022-11-27T12:11:48.097Z,100227.09
2022-11-27T12:14:32.553Z,100222.00
2022-11-27T12:17:28.173Z,100220.59
2022-11-27T12:20:35.906Z,100218.00
2022-11-27T12:23:28.218Z,100224.75
2022-11-27T12:26:26.963Z,100216.44
2022-11-27T12:29:09.453Z,100210.31
2022-11-27T12:32:00.941Z,100210.44
2022-11-27T12:34:33.266Z,100215.94
2022-11-27T12:37:07.062Z,100199.56
2022-11-27T12:39:59.440Z,100208.41
2022-11-27T12:42:33.440Z,100200.94
2022-11-27T12:44:59.922Z,100188.75
2022-11-27T12:47:40.738Z,100191.50
2022-11-27T12:50:23.833Z,100178.00
2022-11-27T12:53:09.819Z,100176.00
2022-11-27T12:55:36.633Z,100176.25
2022-11-27T12:58:07.816Z,100173.75
2022-11-27T13:00:39.425Z,100181.25
2022-11-27T13:03:39.251Z,100165.69
2022-11-27T13:06:12.176Z,100160.22
2022-11-27T13:09:09.933Z,100168.41
2022-11-27T13:11:39.483Z,100145.25
2022-11-27T13:14:18.722Z,100150.72
2022-11-27T13:16:50.353Z,100139.66
2022-11-27T13:19:29.122Z,100136.50
2022-11-27T13:21:58.359Z,100147.50
2022-11-27T13:24:27.086Z,100139.75
2022-11-27T13:27:10.728Z,100128.53
2022-11-27T13:29:48.177Z,100129.47
2022-11-27T13:32:30.903Z,100136.31
2022-11-27T13:35:07.811Z,100131.16
2022-11-27T13:37:37.484Z,100121.72
2022-11-27T13:40:21.038Z,100113.28
2022-11-27T13:42:56.455Z,100113.69
2022-11-27T13:45:26.657Z,100111.97
2022-11-27T13:47:54.457Z,100109.44
2022-11-27T13:50:25.808Z,100110.66
2022-11-27T13:53:00.784Z,100108.84
2022-11-27T13:55:33.924Z,100101.41
2022-11-27T13:58:02.721Z,100096.13
2022-11-27T14:00:44.839Z,100100.19
2022-11-27T14:03:30.460Z,100086.09
2022-11-27T14:05:57.672Z,100089.06
2022-11-27T14:08:31.833Z,100086.72
2022-11-27T14:10:59.885Z,100084.34
2022-11-27T14:13:38.434Z,100091.56
2022-11-27T14:16:22.057Z,100078.88
2022-11-27T14:18:51.776Z,100075.28
2022-11-27T14:21:38.818Z,100064.19
2022-11-27T14:24:23.557Z,100056.59
2022-11-27T14:26:50.073Z,100058.28
2022-11-27T14:29:16.625Z,100043.47
2022-11-27T14:31:43.762Z,100057.41
2022-11-27T14:34:30.565Z,100040.34
2022-11-27T14:36:57.924Z,100044.63
2022-11-27T14:39:31.348Z,100037.38
2022-11-27T14:42:03.124Z,100035.59
2022-11-27T14:44:30.204Z,100025.56
2022-11-27T14:47:00.497Z,100024.69
2022-11-27T14:49:29.061Z,100020.09
2022-11-27T14:52:01.669Z,100016.06
2022-11-27T14:54:39.176Z,100027.31
2022-11-27T14:57:07.245Z,100012.00
2022-11-27T14:59:33.813Z,100010.81
2022-11-27T15:02:15.332Z,100016.88
2022-11-27T15:04:43.765Z,100011.69
2022-11-27T15:07:21.985Z,100007.31
2022-11-27T15:09:54.263Z,99996.00
2022-11-27T15:12:24.026Z,100013.19
2022-11-27T15:15:02.311Z,100010.47
2022-11-27T15:17:32.820Z,100009.69
2022-11-27T15:20:01.267Z,100010.34
2022-11-27T15:22:27.941Z,100003.66
2022-11-27T15:25:02.687Z,100013.97
2022-11-27T15:27:33.668Z,100001.03
2022-11-27T15:30:10.107Z,100003.44
2022-11-27T15:32:51.943Z,100001.88
2022-11-27T15:35:27.951Z,99993.09
2022-11-27T15:37:58.264Z,99997.31
2022-11-27T15:40:24.881Z,99993.88
2022-11-27T15:42:51.351Z,99984.38
2022-11-27T15:45:17.944Z,99988.59
2022-11-27T15:47:44.591Z,99983.56
2022-11-27T15:50:16.448Z,99981.00
2022-11-27T15:52:43.275Z,99977.25
2022-11-27T15:55:17.176Z,99978.19
2022-11-27T15:57:43.795Z,99960.88
2022-11-27T16:00:11.054Z,99958.16
2022-11-27T16:02:38.374Z,99948.53
2022-11-27T16:05:06.883Z,99956.19
2022-11-27T16:07:34.361Z,99946.91
2022-11-27T16:10:01.564Z,99935.81
2022-11-27T16:12:28.130Z,99938.22
2022-11-27T16:14:54.685Z,99925.63
2022-11-27T16:17:21.506Z,99922.91
2022-11-27T16:19:47.993Z,99917.75
2022-11-27T16:22:14.557Z,99909.13
2022-11-27T16:24:41.545Z,99902.44
2022-11-27T16:27:08.209Z,99888.66
2022-11-27T16:29:34.986Z,99893.56
2022-11-27T16:32:02.195Z,99894.56
2022-11-27T16:34:28.845Z,99896.53
2022-11-27T16:36:55.373Z,99883.09
2022-11-27T16:39:21.882Z,99871.31
2022-11-27T16:41:48.480Z,99872.47
2022-11-27T16:44:15.435Z,99874.97
2022-11-27T16:46:43.883Z,99864.56
2022-11-27T16:49:13.260Z,99862.56
2022-11-27T16:51:40.279Z,99851.41
2022-11-27T16:54:10.035Z,99851.31
2022-11-27T16:56:38.398Z,99848.06
2022-11-27T16:59:10.029Z,99841.78
2022-11-27T17:01:37.898Z,99834.25
2022-11-27T17:04:07.188Z,99837.78
2022-11-27T17:06:37.294Z,99832.84
2022-11-27T17:09:06.039Z,99831.22
2022-11-27T17:11:35.481Z,99837.84
2022-11-27T17:14:06.929Z,99825.00
2022-11-27T17:16:35.004Z,99817.56
2022-11-27T17:19:02.623Z,99811.47
2022-11-27T17:21:34.480Z,99813.16
2022-11-27T17:24:03.694Z,99798.66
2022-11-27T17:26:31.875Z,99797.63
2022-11-27T17:28:59.607Z,99794.25
2022-11-27T17:31:31.264Z,99799.63
2022-11-27T17:33:58.380Z,99796.25
2022-11-27T17:36:26.047Z,99794.63
2022-11-27T17:38:53.646Z,99801.38
2022-11-27T17:41:21.324Z,99790.66
2022-11-27T17:43:48.611Z,99776.19
2022-11-27T17:46:34.584Z,99771.28
2022-11-27T17:49:03.258Z,99767.03
2022-11-27T17:51:32.771Z,99771.53
2022-11-27T17:54:01.644Z,99761.94
2022-11-27T17:56:29.273Z,99761.97
2022-11-27T17:58:55.849Z,99759.31
2022-11-27T18:01:29.034Z,99754.19
2022-11-27T18:03:57.619Z,99749.25
2022-11-27T18:06:24.207Z,99753.63
2022-11-27T18:08:50.929Z,99746.50
2022-11-27T18:11:22.301Z,99744.88
2022-11-27T18:13:49.365Z,99740.50
2022-11-27T18:16:19.528Z,99731.31
2022-11-27T18:18:46.960Z,99732.88
2022-11-27T18:21:21.016Z,99727.81
2022-11-27T18:24:21.383Z,99716.50
2022-11-27T18:27:06.740Z,99714.00
2022-11-27T18:29:23.348Z,99702.69
2022-11-27T18:31:51.182Z,99698.44
2022-11-27T18:34:18.032Z,99695.03
2022-11-27T18:36:45.811Z,99677.25
2022-11-27T18:39:12.458Z,99681.53
2022-11-27T18:41:39.041Z,99687.44
2022-11-27T18:44:05.732Z,99679.75
2022-11-27T18:46:32.725Z,99678.97
2022-11-27T18:49:00.806Z,99673.97
2022-11-27T18:51:27.695Z,99676.53
2022-11-27T18:53:55.865Z,99682.44
2022-11-27T18:56:27.640Z,99683.41
2022-11-27T18:58:54.645Z,99697.97
2022-11-27T19:01:25.971Z,99702.19
2022-11-27T19:03:53.042Z,99703.84
2022-11-27T19:06:21.460Z,99709.88
2022-11-27T19:08:48.640Z,99717.38
2022-11-27T19:11:19.903Z,99731.22
2022-11-27T19:13:46.815Z,99739.78
2022-11-27T19:16:15.779Z,99743.44
2022-11-27T19:18:42.808Z,99744.13
2022-11-27T19:21:17.430Z,99744.22
2022-11-27T19:23:44.546Z,99763.25
2022-11-27T19:26:13.479Z,99776.81
2022-11-27T19:28:40.600Z,99774.22
2022-11-27T19:31:10.786Z,99771.66
2022-11-27T19:33:38.260Z,99765.69
2022-11-27T19:36:08.605Z,99782.00
2022-11-27T19:38:35.948Z,99793.56
2022-11-27T19:41:04.360Z,99787.72
2022-11-27T19:43:31.227Z,99791.22
2022-11-27T19:45:58.014Z,99790.50
2022-11-27T19:48:24.563Z,99789.69
2022-11-27T19:50:51.808Z,99788.75
2022-11-27T19:53:18.570Z,99786.88
2022-11-27T19:55:52.849Z,99779.16
2022-11-27T19:58:19.434Z,99787.16
2022-11-27T20:00:46.005Z,99785.41
2022-11-27T20:03:12.563Z,99776.94
2022-11-27T20:05:39.232Z,99783.88
2022-11-27T20:08:05.872Z,99778.75
2022-11-27T20:10:33.074Z,99783.72
2022-11-27T20:13:01.668Z,99796.44
2022-11-27T20:15:29.312Z,99800.75
2022-11-27T20:17:56.063Z,99799.91
2022-11-27T20:20:22.794Z,99793.06
2022-11-27T20:22:50.372Z,99798.94
2022-11-27T20:25:21.683Z,99795.38
2022-11-27T20:27:48.462Z,99791.50
2022-11-27T20:30:15.165Z,99782.22
2022-11-27T20:32:41.666Z,99770.09
2022-11-27T20:35:08.520Z,99749.84
2022-11-27T20:37:35.112Z,99745.63
2022-11-27T20:40:01.708Z,99746.34
2022-11-27T20:42:28.299Z,99744.34
2022-11-27T20:44:54.826Z,99745.22
2022-11-27T20:47:21.370Z,99740.13
2022-11-27T20:49:47.955Z,99741.81
2022-11-27T20:52:14.680Z,99750.28
2022-11-27T20:54:41.341Z,99747.72
2022-11-27T20:57:14.199Z,99740.03
2022-11-27T20:59:41.910Z,99718.53
2022-11-27T21:02:12.505Z,99723.69
2022-11-27T21:04:39.135Z,99730.50
2022-11-27T21:07:06.642Z,99725.28
2022-11-27T21:09:33.750Z,99729.66
2022-11-27T21:12:00.688Z,99722.91
2022-11-27T21:14:27.413Z,99718.75
2022-11-27T21:16:54.436Z,99723.75
2022-11-27T21:19:25.269Z,99729.44
2022-11-27T21:21:53.439Z,99742.19
2022-11-27T21:24:22.147Z,99740.34
2022-11-27T21:26:49.181Z,99751.47
2022-11-27T21:29:16.070Z,99759.06
2022-11-27T21:31:46.752Z,99747.75
2022-11-27T21:34:13.949Z,99752.00
2022-11-27T21:36:40.618Z,99752.84
2022-11-27T21:39:09.239Z,99751.88
2022-11-27T21:41:36.638Z,99756.06
2022-11-27T21:44:04.422Z,99746.50
2022-11-27T21:46:31.274Z,99737.97
2022-11-27T21:49:00.429Z,99734.72
2022-11-27T21:51:28.854Z,99721.03
2022-11-27T21:53:56.986Z,99710.00
2022-11-27T21:56:25.804Z,99702.22
2022-11-27T21:58:52.790Z,99703.28
2022-11-27T22:01:21.846Z,99709.44
2022-11-27T22:03:51.399Z,99721.78
2022-11-27T22:06:19.129Z,99726.91
2022-11-27T22:08:47.565Z,99721.66
2022-11-27T22:11:17.740Z,99716.25
2022-11-27T22:13:44.834Z,99723.44
2022-11-27T22:16:20.168Z,99719.19
2022-11-27T22:18:47.144Z,99724.41
2022-11-27T22:21:14.637Z,99732.03
2022-11-27T22:23:41.761Z,99730.28
2022-11-27T22:26:11.748Z,99726.50
2022-11-27T22:28:38.816Z,99727.38
2022-11-27T22:31:17.073Z,99726.00
2022-11-27T22:33:45.049Z,99728.56
2022-11-27T22:36:16.878Z,99735.78
2022-11-27T22:38:45.424Z,99741.84
2022-11-27T22:41:12.891Z,99751.25
2022-11-27T22:43:40.539Z,99739.19
2022-11-27T22:46:09.723Z,99734.75
2022-11-27T22:48:36.635Z,99730.66
2022-11-27T22:51:03.362Z,99736.72
2022-11-27T22:53:30.225Z,99733.50
2022-11-27T22:55:57.386Z,99734.53
2022-11-27T22:58:24.056Z,99741.97
2022-11-27T23:00:57.202Z,99757.63
2022-11-27T23:03:23.847Z,99745.13
2022-11-27T23:05:50.452Z,99736.50
2022-11-27T23:08:18.947Z,99722.38
2022-11-27T23:10:49.629Z,99710.69
2022-11-27T23:13:16.969Z,99711.50
2022-11-27T23:15:44.550Z,99694.50
2022-11-27T23:18:11.733Z,99699.31
2022-11-27T23:20:42.657Z,99693.56
2022-11-27T23:23:10.126Z,99684.03
2022-11-27T23:25:37.262Z,99678.25
2022-11-27T23:28:04.132Z,99665.50
2022-11-27T23:30:31.562Z,99679.25
2022-11-27T23:32:58.103Z,99682.53
2022-11-27T23:35:24.720Z,99675.53
2022-11-27T23:37:51.373Z,99675.50
2022-11-27T23:40:18.066Z,99675.53
2022-11-27T23:42:44.610Z,99672.03
2022-11-27T23:45:11.651Z,99672.69
2022-11-27T23:47:38.158Z,99668.38
2022-11-27T23:50:06.377Z,99676.13
2022-11-27T23:52:32.990Z,99669.22
2022-11-27T23:54:59.589Z,99674.94
2022-11-27T23:57:26.160Z,99669.66
2022-11-27T23:59:52.653Z,99664.41
